sensor_id;sensor_type;location;lat;lon;timestamp;P1;durP1;ratioP1;P2;durP2;ratioP2
80295;SDS011;74188;42.148;24.762;2024-03-23T00:53:48;14.75;;;7.20;;
80295;SDS011;74188;42.148;24.762;2024-03-23T00:56:14;15.52;;;7.80;;
80295;SDS011;74188;42.148;24.762;2024-03-23T00:58:39;17.75;;;8.80;;
80295;SDS011;74188;42.148;24.762;2024-03-23T01:01:05;15.77;;;7.72;;
80295;SDS011;74188;42.148;24.762;2024-03-23T01:03:31;21.38;;;8.82;;
80295;SDS011;74188;42.148;24.762;2024-03-23T01:06:02;14.32;;;8.20;;
80295;SDS011;74188;42.148;24.762;2024-03-23T01:08:31;15.95;;;8.13;;
80295;SDS011;74188;42.148;24.762;2024-03-23T01:10:57;15.85;;;7.85;;
80295;SDS011;74188;42.148;24.762;2024-03-23T01:13:24;17.17;;;7.70;;
80295;SDS011;74188;42.148;24.762;2024-03-23T01:15:50;15.27;;;7.97;;
80295;SDS011;74188;42.148;24.762;2024-03-23T01:18:17;12.55;;;7.05;;
80295;SDS011;74188;42.148;24.762;2024-03-23T01:20:43;14.90;;;7.55;;
80295;SDS011;74188;42.148;24.762;2024-03-23T01:23:09;20.08;;;11.40;;
80295;SDS011;74188;42.148;24.762;2024-03-23T01:25:35;14.85;;;8.85;;
80295;SDS011;74188;42.148;24.762;2024-03-23T01:28:01;12.88;;;7.60;;
80295;SDS011;74188;42.148;24.762;2024-03-23T01:30:26;16.02;;;7.28;;
80295;SDS011;74188;42.148;24.762;2024-03-23T01:32:52;19.40;;;7.88;;
80295;SDS011;74188;42.148;24.762;2024-03-23T01:35:18;18.08;;;8.30;;
80295;SDS011;74188;42.148;24.762;2024-03-23T01:37:44;15.98;;;8.63;;
80295;SDS011;74188;42.148;24.762;2024-03-23T01:40:10;17.60;;;8.30;;
80295;SDS011;74188;42.148;24.762;2024-03-23T01:42:38;14.30;;;8.43;;
80295;SDS011;74188;42.148;24.762;2024-03-23T01:45:06;15.10;;;8.43;;
80295;SDS011;74188;42.148;24.762;2024-03-23T01:47:33;14.70;;;8.13;;
80295;SDS011;74188;42.148;24.762;2024-03-23T01:49:59;14.77;;;8.23;;
80295;SDS011;74188;42.148;24.762;2024-03-23T01:52:25;17.20;;;8.48;;
80295;SDS011;74188;42.148;24.762;2024-03-23T01:54:52;16.80;;;9.10;;
80295;SDS011;74188;42.148;24.762;2024-03-23T01:57:18;18.20;;;9.20;;
80295;SDS011;74188;42.148;24.762;2024-03-23T01:59:47;14.23;;;9.00;;
80295;SDS011;74188;42.148;24.762;2024-03-23T02:02:13;17.48;;;10.05;;
80295;SDS011;74188;42.148;24.762;2024-03-23T02:04:39;17.45;;;9.35;;
80295;SDS011;74188;42.148;24.762;2024-03-23T02:07:07;19.75;;;9.35;;
80295;SDS011;74188;42.148;24.762;2024-03-23T02:09:33;16.00;;;9.18;;
80295;SDS011;74188;42.148;24.762;2024-03-23T02:11:59;19.85;;;9.77;;
80295;SDS011;74188;42.148;24.762;2024-03-23T02:14:27;19.35;;;9.07;;
80295;SDS011;74188;42.148;24.762;2024-03-23T02:16:53;18.05;;;9.85;;
80295;SDS011;74188;42.148;24.762;2024-03-23T02:19:19;20.70;;;10.00;;
80295;SDS011;74188;42.148;24.762;2024-03-23T02:21:44;19.02;;;9.45;;
80295;SDS011;74188;42.148;24.762;2024-03-23T02:24:12;17.65;;;9.82;;
80295;SDS011;74188;42.148;24.762;2024-03-23T02:26:37;19.15;;;9.95;;
80295;SDS011;74188;42.148;24.762;2024-03-23T02:29:03;22.02;;;10.18;;
80295;SDS011;74188;42.148;24.762;2024-03-23T02:31:29;17.58;;;10.13;;
80295;SDS011;74188;42.148;24.762;2024-03-23T02:33:54;22.67;;;10.77;;
80295;SDS011;74188;42.148;24.762;2024-03-23T02:36:20;21.58;;;10.65;;
80295;SDS011;74188;42.148;24.762;2024-03-23T02:38:46;16.90;;;10.45;;
80295;SDS011;74188;42.148;24.762;2024-03-23T02:41:12;19.30;;;9.88;;
80295;SDS011;74188;42.148;24.762;2024-03-23T02:43:38;18.27;;;10.38;;
80295;SDS011;74188;42.148;24.762;2024-03-23T02:46:04;20.80;;;10.20;;
80295;SDS011;74188;42.148;24.762;2024-03-23T02:48:30;18.85;;;10.52;;
80295;SDS011;74188;42.148;24.762;2024-03-23T02:50:55;19.65;;;10.38;;
80295;SDS011;74188;42.148;24.762;2024-03-23T02:53:21;20.27;;;10.30;;
80295;SDS011;74188;42.148;24.762;2024-03-23T02:55:47;18.17;;;10.30;;
80295;SDS011;74188;42.148;24.762;2024-03-23T02:58:12;19.02;;;10.38;;
80295;SDS011;74188;42.148;24.762;2024-03-23T03:00:38;18.05;;;10.60;;
80295;SDS011;74188;42.148;24.762;2024-03-23T03:03:04;19.98;;;10.85;;
80295;SDS011;74188;42.148;24.762;2024-03-23T03:05:29;20.33;;;11.35;;
80295;SDS011;74188;42.148;24.762;2024-03-23T03:07:55;21.00;;;10.95;;
80295;SDS011;74188;42.148;24.762;2024-03-23T03:10:21;23.58;;;11.38;;
80295;SDS011;74188;42.148;24.762;2024-03-23T03:12:46;21.02;;;11.70;;
80295;SDS011;74188;42.148;24.762;2024-03-23T03:15:12;19.95;;;11.52;;
80295;SDS011;74188;42.148;24.762;2024-03-23T03:17:38;22.90;;;11.75;;
80295;SDS011;74188;42.148;24.762;2024-03-23T03:20:04;23.65;;;11.73;;
80295;SDS011;74188;42.148;24.762;2024-03-23T03:22:30;19.83;;;11.63;;
80295;SDS011;74188;42.148;24.762;2024-03-23T03:24:55;22.45;;;12.52;;
80295;SDS011;74188;42.148;24.762;2024-03-23T03:27:21;22.17;;;12.27;;
80295;SDS011;74188;42.148;24.762;2024-03-23T03:29:48;20.70;;;11.73;;
80295;SDS011;74188;42.148;24.762;2024-03-23T03:32:13;22.60;;;12.23;;
80295;SDS011;74188;42.148;24.762;2024-03-23T03:34:39;22.50;;;12.10;;
80295;SDS011;74188;42.148;24.762;2024-03-23T03:37:05;21.85;;;12.23;;
80295;SDS011;74188;42.148;24.762;2024-03-23T03:39:30;21.35;;;12.05;;
80295;SDS011;74188;42.148;24.762;2024-03-23T03:41:56;20.55;;;11.85;;
80295;SDS011;74188;42.148;24.762;2024-03-23T03:44:22;19.88;;;11.90;;
80295;SDS011;74188;42.148;24.762;2024-03-23T03:46:47;20.88;;;12.57;;
80295;SDS011;74188;42.148;24.762;2024-03-23T03:49:13;23.40;;;11.45;;
80295;SDS011;74188;42.148;24.762;2024-03-23T03:51:39;21.35;;;11.65;;
80295;SDS011;74188;42.148;24.762;2024-03-23T03:54:04;22.35;;;12.38;;
80295;SDS011;74188;42.148;24.762;2024-03-23T03:56:30;22.40;;;11.75;;
80295;SDS011;74188;42.148;24.762;2024-03-23T03:58:55;20.52;;;12.45;;
80295;SDS011;74188;42.148;24.762;2024-03-23T04:01:21;21.55;;;12.02;;
80295;SDS011;74188;42.148;24.762;2024-03-23T04:03:47;24.55;;;12.25;;
80295;SDS011;74188;42.148;24.762;2024-03-23T04:06:18;22.67;;;12.20;;
80295;SDS011;74188;42.148;24.762;2024-03-23T04:08:44;20.92;;;11.98;;
80295;SDS011;74188;42.148;24.762;2024-03-23T04:11:10;18.83;;;11.93;;
80295;SDS011;74188;42.148;24.762;2024-03-23T04:13:36;21.65;;;11.32;;
80295;SDS011;74188;42.148;24.762;2024-03-23T04:16:01;21.27;;;12.13;;
80295;SDS011;74188;42.148;24.762;2024-03-23T04:18:27;20.52;;;12.38;;
80295;SDS011;74188;42.148;24.762;2024-03-23T04:20:53;18.80;;;10.77;;
80295;SDS011;74188;42.148;24.762;2024-03-23T04:23:18;17.63;;;10.57;;
80295;SDS011;74188;42.148;24.762;2024-03-23T04:25:44;16.58;;;10.18;;
80295;SDS011;74188;42.148;24.762;2024-03-23T04:28:10;17.98;;;9.98;;
80295;SDS011;74188;42.148;24.762;2024-03-23T04:30:35;16.17;;;9.38;;
80295;SDS011;74188;42.148;24.762;2024-03-23T04:33:02;16.45;;;9.48;;
80295;SDS011;74188;42.148;24.762;2024-03-23T04:35:27;15.02;;;9.27;;
80295;SDS011;74188;42.148;24.762;2024-03-23T04:37:53;15.35;;;9.45;;
80295;SDS011;74188;42.148;24.762;2024-03-23T04:40:20;20.67;;;10.65;;
80295;SDS011;74188;42.148;24.762;2024-03-23T04:42:46;18.45;;;10.07;;
80295;SDS011;74188;42.148;24.762;2024-03-23T04:45:12;17.23;;;9.43;;
80295;SDS011;74188;42.148;24.762;2024-03-23T04:47:38;16.13;;;9.55;;
80295;SDS011;74188;42.148;24.762;2024-03-23T04:50:04;17.42;;;9.65;;
80295;SDS011;74188;42.148;24.762;2024-03-23T04:52:30;17.90;;;9.10;;
80295;SDS011;74188;42.148;24.762;2024-03-23T04:54:55;15.70;;;9.70;;
80295;SDS011;74188;42.148;24.762;2024-03-23T04:57:21;17.30;;;9.23;;
80295;SDS011;74188;42.148;24.762;2024-03-23T04:59:47;15.43;;;8.70;;
80295;SDS011;74188;42.148;24.762;2024-03-23T05:02:13;16.05;;;9.27;;
80295;SDS011;74188;42.148;24.762;2024-03-23T05:04:39;15.57;;;8.73;;
80295;SDS011;74188;42.148;24.762;2024-03-23T05:07:05;15.88;;;8.48;;
80295;SDS011;74188;42.148;24.762;2024-03-23T05:09:31;14.00;;;8.32;;
80295;SDS011;74188;42.148;24.762;2024-03-23T05:11:58;14.50;;;8.63;;
80295;SDS011;74188;42.148;24.762;2024-03-23T05:14:27;14.73;;;8.48;;
80295;SDS011;74188;42.148;24.762;2024-03-23T05:16:53;13.68;;;7.70;;
80295;SDS011;74188;42.148;24.762;2024-03-23T05:19:19;14.90;;;7.75;;
80295;SDS011;74188;42.148;24.762;2024-03-23T05:21:45;16.77;;;8.00;;
80295;SDS011;74188;42.148;24.762;2024-03-23T05:24:11;13.98;;;7.65;;
80295;SDS011;74188;42.148;24.762;2024-03-23T05:26:37;17.52;;;8.25;;
80295;SDS011;74188;42.148;24.762;2024-03-23T05:29:03;13.85;;;8.32;;
80295;SDS011;74188;42.148;24.762;2024-03-23T05:31:29;12.63;;;7.80;;
80295;SDS011;74188;42.148;24.762;2024-03-23T05:33:56;14.25;;;8.05;;
80295;SDS011;74188;42.148;24.762;2024-03-23T05:36:22;14.82;;;8.25;;
80295;SDS011;74188;42.148;24.762;2024-03-23T05:38:49;13.23;;;8.18;;
80295;SDS011;74188;42.148;24.762;2024-03-23T05:41:15;15.63;;;8.30;;
80295;SDS011;74188;42.148;24.762;2024-03-23T05:43:40;13.10;;;7.47;;
80295;SDS011;74188;42.148;24.762;2024-03-23T05:46:06;18.55;;;9.30;;
80295;SDS011;74188;42.148;24.762;2024-03-23T05:48:35;19.20;;;10.27;;
80295;SDS011;74188;42.148;24.762;2024-03-23T05:51:00;15.70;;;9.07;;
80295;SDS011;74188;42.148;24.762;2024-03-23T05:53:26;18.02;;;8.30;;
80295;SDS011;74188;42.148;24.762;2024-03-23T05:56:03;15.65;;;8.57;;
80295;SDS011;74188;42.148;24.762;2024-03-23T05:58:30;15.40;;;8.57;;
80295;SDS011;74188;42.148;24.762;2024-03-23T06:01:02;14.48;;;8.23;;
80295;SDS011;74188;42.148;24.762;2024-03-23T06:03:28;15.45;;;8.68;;
80295;SDS011;74188;42.148;24.762;2024-03-23T06:05:55;16.55;;;8.82;;
80295;SDS011;74188;42.148;24.762;2024-03-23T06:08:21;15.00;;;8.50;;
80295;SDS011;74188;42.148;24.762;2024-03-23T06:10:47;13.20;;;8.60;;
80295;SDS011;74188;42.148;24.762;2024-03-23T06:13:13;15.60;;;8.77;;
80295;SDS011;74188;42.148;24.762;2024-03-23T06:15:39;14.25;;;8.02;;
80295;SDS011;74188;42.148;24.762;2024-03-23T06:18:05;18.88;;;8.55;;
80295;SDS011;74188;42.148;24.762;2024-03-23T06:20:33;14.37;;;8.43;;
80295;SDS011;74188;42.148;24.762;2024-03-23T06:22:59;16.80;;;8.20;;
80295;SDS011;74188;42.148;24.762;2024-03-23T06:25:25;14.00;;;8.57;;
80295;SDS011;74188;42.148;24.762;2024-03-23T06:27:51;14.40;;;8.77;;
80295;SDS011;74188;42.148;24.762;2024-03-23T06:30:16;16.20;;;8.95;;
80295;SDS011;74188;42.148;24.762;2024-03-23T06:32:42;16.55;;;9.43;;
80295;SDS011;74188;42.148;24.762;2024-03-23T06:35:08;21.85;;;9.65;;
80295;SDS011;74188;42.148;24.762;2024-03-23T06:37:35;20.08;;;8.82;;
80295;SDS011;74188;42.148;24.762;2024-03-23T06:40:01;15.38;;;9.13;;
80295;SDS011;74188;42.148;24.762;2024-03-23T06:42:29;16.65;;;9.10;;
80295;SDS011;74188;42.148;24.762;2024-03-23T06:44:55;14.63;;;9.35;;
80295;SDS011;74188;42.148;24.762;2024-03-23T06:47:21;15.45;;;8.48;;
80295;SDS011;74188;42.148;24.762;2024-03-23T06:49:46;14.25;;;8.70;;
80295;SDS011;74188;42.148;24.762;2024-03-23T06:52:12;21.23;;;13.65;;
80295;SDS011;74188;42.148;24.762;2024-03-23T06:54:37;17.10;;;10.45;;
80295;SDS011;74188;42.148;24.762;2024-03-23T06:57:03;16.92;;;9.13;;
80295;SDS011;74188;42.148;24.762;2024-03-23T06:59:29;13.35;;;8.80;;
80295;SDS011;74188;42.148;24.762;2024-03-23T07:01:55;18.15;;;8.60;;
80295;SDS011;74188;42.148;24.762;2024-03-23T07:04:20;21.00;;;10.45;;
80295;SDS011;74188;42.148;24.762;2024-03-23T07:06:46;17.30;;;9.65;;
80295;SDS011;74188;42.148;24.762;2024-03-23T07:09:12;14.75;;;9.35;;
80295;SDS011;74188;42.148;24.762;2024-03-23T07:11:37;17.70;;;9.40;;
80295;SDS011;74188;42.148;24.762;2024-03-23T07:14:03;14.43;;;8.63;;
80295;SDS011;74188;42.148;24.762;2024-03-23T07:16:29;14.15;;;8.93;;
80295;SDS011;74188;42.148;24.762;2024-03-23T07:18:55;15.13;;;8.95;;
80295;SDS011;74188;42.148;24.762;2024-03-23T07:21:21;18.02;;;9.00;;
80295;SDS011;74188;42.148;24.762;2024-03-23T07:23:47;13.77;;;9.15;;
80295;SDS011;74188;42.148;24.762;2024-03-23T07:26:12;15.93;;;9.45;;
80295;SDS011;74188;42.148;24.762;2024-03-23T07:28:38;17.67;;;10.00;;
80295;SDS011;74188;42.148;24.762;2024-03-23T07:31:09;15.60;;;8.90;;
80295;SDS011;74188;42.148;24.762;2024-03-23T07:33:36;15.10;;;8.52;;
80295;SDS011;74188;42.148;24.762;2024-03-23T07:36:06;18.08;;;9.05;;
80295;SDS011;74188;42.148;24.762;2024-03-23T07:38:32;17.27;;;9.65;;
80295;SDS011;74188;42.148;24.762;2024-03-23T07:43:30;17.05;;;8.98;;
80295;SDS011;74188;42.148;24.762;2024-03-23T07:45:56;15.45;;;9.05;;
80295;SDS011;74188;42.148;24.762;2024-03-23T07:48:22;13.95;;;8.60;;
80295;SDS011;74188;42.148;24.762;2024-03-23T07:51:05;13.27;;;8.70;;
80295;SDS011;74188;42.148;24.762;2024-03-23T07:53:32;14.32;;;8.13;;
80295;SDS011;74188;42.148;24.762;2024-03-23T07:56:01;14.98;;;8.40;;
80295;SDS011;74188;42.148;24.762;2024-03-23T07:58:31;14.05;;;8.65;;
80295;SDS011;74188;42.148;24.762;2024-03-23T08:01:01;16.05;;;9.02;;
80295;SDS011;74188;42.148;24.762;2024-03-23T08:03:39;15.85;;;8.70;;
80295;SDS011;74188;42.148;24.762;2024-03-23T08:06:12;14.90;;;9.13;;
80295;SDS011;74188;42.148;24.762;2024-03-23T08:08:40;21.73;;;8.65;;
80295;SDS011;74188;42.148;24.762;2024-03-23T08:11:07;13.50;;;8.73;;
80295;SDS011;74188;42.148;24.762;2024-03-23T08:13:33;16.20;;;8.65;;
80295;SDS011;74188;42.148;24.762;2024-03-23T08:16:00;16.85;;;8.90;;
80295;SDS011;74188;42.148;24.762;2024-03-23T08:18:27;15.30;;;8.30;;
80295;SDS011;74188;42.148;24.762;2024-03-23T08:23:27;12.23;;;7.25;;
80295;SDS011;74188;42.148;24.762;2024-03-23T08:26:03;13.63;;;7.00;;
80295;SDS011;74188;42.148;24.762;2024-03-23T08:28:30;12.80;;;7.60;;
80295;SDS011;74188;42.148;24.762;2024-03-23T08:30:56;13.60;;;8.10;;
80295;SDS011;74188;42.148;24.762;2024-03-23T08:33:25;12.23;;;7.47;;
80295;SDS011;74188;42.148;24.762;2024-03-23T08:38:20;15.73;;;9.82;;
80295;SDS011;74188;42.148;24.762;2024-03-23T08:40:45;11.48;;;6.75;;
80295;SDS011;74188;42.148;24.762;2024-03-23T08:43:11;12.88;;;6.68;;
80295;SDS011;74188;42.148;24.762;2024-03-23T08:45:37;20.20;;;6.85;;
80295;SDS011;74188;42.148;24.762;2024-03-23T08:48:02;14.52;;;6.72;;
80295;SDS011;74188;42.148;24.762;2024-03-23T08:50:28;15.05;;;6.25;;
80295;SDS011;74188;42.148;24.762;2024-03-23T08:52:54;18.65;;;6.43;;
80295;SDS011;74188;42.148;24.762;2024-03-23T08:55:19;14.98;;;5.97;;
80295;SDS011;74188;42.148;24.762;2024-03-23T08:57:45;12.00;;;5.63;;
80295;SDS011;74188;42.148;24.762;2024-03-23T09:00:11;15.13;;;7.18;;
80295;SDS011;74188;42.148;24.762;2024-03-23T09:02:37;18.50;;;5.88;;
80295;SDS011;74188;42.148;24.762;2024-03-23T09:05:03;19.58;;;5.78;;
80295;SDS011;74188;42.148;24.762;2024-03-23T09:07:32;8.88;;;5.20;;
80295;SDS011;74188;42.148;24.762;2024-03-23T09:09:57;8.43;;;4.60;;
80295;SDS011;74188;42.148;24.762;2024-03-23T09:12:23;13.43;;;5.38;;
80295;SDS011;74188;42.148;24.762;2024-03-23T09:14:52;9.43;;;5.00;;
80295;SDS011;74188;42.148;24.762;2024-03-23T09:17:18;9.80;;;5.50;;
80295;SDS011;74188;42.148;24.762;2024-03-23T09:19:44;9.65;;;5.15;;
80295;SDS011;74188;42.148;24.762;2024-03-23T09:22:09;13.38;;;5.95;;
80295;SDS011;74188;42.148;24.762;2024-03-23T09:24:35;14.43;;;6.07;;
80295;SDS011;74188;42.148;24.762;2024-03-23T09:27:01;10.57;;;5.47;;
80295;SDS011;74188;42.148;24.762;2024-03-23T09:29:28;9.98;;;5.78;;
80295;SDS011;74188;42.148;24.762;2024-03-23T09:31:53;13.73;;;5.90;;
80295;SDS011;74188;42.148;24.762;2024-03-23T09:34:19;16.17;;;6.10;;
80295;SDS011;74188;42.148;24.762;2024-03-23T09:36:45;9.73;;;5.57;;
80295;SDS011;74188;42.148;24.762;2024-03-23T09:39:10;14.23;;;5.90;;
80295;SDS011;74188;42.148;24.762;2024-03-23T09:41:36;11.10;;;5.37;;
80295;SDS011;74188;42.148;24.762;2024-03-23T09:44:02;11.75;;;5.25;;
80295;SDS011;74188;42.148;24.762;2024-03-23T09:46:28;8.68;;;4.95;;
80295;SDS011;74188;42.148;24.762;2024-03-23T09:48:54;8.03;;;5.10;;
80295;SDS011;74188;42.148;24.762;2024-03-23T09:51:21;9.45;;;5.28;;
80295;SDS011;74188;42.148;24.762;2024-03-23T09:53:49;11.20;;;4.90;;
80295;SDS011;74188;42.148;24.762;2024-03-23T09:56:15;11.02;;;4.80;;
80295;SDS011;74188;42.148;24.762;2024-03-23T09:58:42;8.60;;;4.68;;
80295;SDS011;74188;42.148;24.762;2024-03-23T10:01:08;13.77;;;5.30;;
80295;SDS011;74188;42.148;24.762;2024-03-23T10:03:44;10.65;;;4.88;;
80295;SDS011;74188;42.148;24.762;2024-03-23T10:06:10;8.68;;;4.47;;
80295;SDS011;74188;42.148;24.762;2024-03-23T10:08:36;14.07;;;5.40;;
80295;SDS011;74188;42.148;24.762;2024-03-23T10:11:20;10.13;;;4.67;;
80295;SDS011;74188;42.148;24.762;2024-03-23T10:13:46;9.90;;;4.30;;
80295;SDS011;74188;42.148;24.762;2024-03-23T10:16:12;9.27;;;4.82;;
80295;SDS011;74188;42.148;24.762;2024-03-23T10:18:47;11.93;;;5.05;;
80295;SDS011;74188;42.148;24.762;2024-03-23T10:21:14;8.03;;;4.73;;
80295;SDS011;74188;42.148;24.762;2024-03-23T10:23:41;9.88;;;5.05;;
80295;SDS011;74188;42.148;24.762;2024-03-23T10:28:56;9.07;;;4.50;;
80295;SDS011;74188;42.148;24.762;2024-03-23T10:31:25;12.50;;;5.32;;
80295;SDS011;74188;42.148;24.762;2024-03-23T10:33:51;7.43;;;4.57;;
80295;SDS011;74188;42.148;24.762;2024-03-23T10:36:19;9.48;;;3.90;;
80295;SDS011;74188;42.148;24.762;2024-03-23T10:38:46;12.00;;;4.78;;
80295;SDS011;74188;42.148;24.762;2024-03-23T10:41:14;7.38;;;4.10;;
80295;SDS011;74188;42.148;24.762;2024-03-23T10:43:40;8.55;;;4.40;;
80295;SDS011;74188;42.148;24.762;2024-03-23T10:46:09;7.80;;;4.28;;
80295;SDS011;74188;42.148;24.762;2024-03-23T10:48:35;10.10;;;4.60;;
80295;SDS011;74188;42.148;24.762;2024-03-23T10:51:01;7.00;;;4.35;;
80295;SDS011;74188;42.148;24.762;2024-03-23T10:53:27;7.72;;;4.00;;
80295;SDS011;74188;42.148;24.762;2024-03-23T10:58:30;7.95;;;3.90;;
80295;SDS011;74188;42.148;24.762;2024-03-23T11:01:03;11.70;;;7.00;;
80295;SDS011;74188;42.148;24.762;2024-03-23T11:03:33;8.00;;;4.47;;
80295;SDS011;74188;42.148;24.762;2024-03-23T11:06:01;13.70;;;4.13;;
80295;SDS011;74188;42.148;24.762;2024-03-23T11:08:34;8.15;;;3.97;;
80295;SDS011;74188;42.148;24.762;2024-03-23T11:11:14;8.15;;;3.90;;
80295;SDS011;74188;42.148;24.762;2024-03-23T11:13:42;8.25;;;3.70;;
80295;SDS011;74188;42.148;24.762;2024-03-23T11:16:26;11.93;;;3.92;;
80295;SDS011;74188;42.148;24.762;2024-03-23T11:22:13;10.32;;;3.72;;
80295;SDS011;74188;42.148;24.762;2024-03-23T11:24:38;8.90;;;3.47;;
80295;SDS011;74188;42.148;24.762;2024-03-23T11:27:15;7.70;;;3.90;;
80295;SDS011;74188;42.148;24.762;2024-03-23T11:29:41;9.65;;;4.38;;
80295;SDS011;74188;42.148;24.762;2024-03-23T11:32:07;9.65;;;3.53;;
80295;SDS011;74188;42.148;24.762;2024-03-23T11:34:35;10.77;;;3.53;;
80295;SDS011;74188;42.148;24.762;2024-03-23T11:37:04;6.15;;;3.42;;
80295;SDS011;74188;42.148;24.762;2024-03-23T11:39:31;6.88;;;3.47;;
80295;SDS011;74188;42.148;24.762;2024-03-23T11:41:57;9.77;;;3.80;;
80295;SDS011;74188;42.148;24.762;2024-03-23T11:44:23;9.70;;;3.97;;
80295;SDS011;74188;42.148;24.762;2024-03-23T11:46:50;9.43;;;3.22;;
80295;SDS011;74188;42.148;24.762;2024-03-23T11:49:28;7.28;;;3.33;;
80295;SDS011;74188;42.148;24.762;2024-03-23T11:51:54;7.03;;;3.42;;
80295;SDS011;74188;42.148;24.762;2024-03-23T11:54:25;6.07;;;3.70;;
80295;SDS011;74188;42.148;24.762;2024-03-23T11:57:04;6.57;;;3.83;;
80295;SDS011;74188;42.148;24.762;2024-03-23T11:59:34;10.32;;;3.80;;
80295;SDS011;74188;42.148;24.762;2024-03-23T12:01:59;7.57;;;3.80;;
80295;SDS011;74188;42.148;24.762;2024-03-23T12:04:26;8.02;;;3.80;;
80295;SDS011;74188;42.148;24.762;2024-03-23T12:07:08;13.18;;;3.90;;
80295;SDS011;74188;42.148;24.762;2024-03-23T12:09:37;7.07;;;3.30;;
80295;SDS011;74188;42.148;24.762;2024-03-23T12:12:16;7.07;;;3.58;;
80295;SDS011;74188;42.148;24.762;2024-03-23T12:14:43;8.23;;;3.33;;
80295;SDS011;74188;42.148;24.762;2024-03-23T12:19:36;7.53;;;3.28;;
80295;SDS011;74188;42.148;24.762;2024-03-23T12:22:03;5.75;;;2.97;;
80295;SDS011;74188;42.148;24.762;2024-03-23T12:24:29;5.13;;;2.90;;
80295;SDS011;74188;42.148;24.762;2024-03-23T12:26:59;10.02;;;3.55;;
80295;SDS011;74188;42.148;24.762;2024-03-23T12:29:26;6.45;;;2.90;;
80295;SDS011;74188;42.148;24.762;2024-03-23T12:31:59;9.75;;;3.10;;
80295;SDS011;74188;42.148;24.762;2024-03-23T12:34:26;6.20;;;3.30;;
80295;SDS011;74188;42.148;24.762;2024-03-23T12:36:52;10.70;;;6.93;;
80295;SDS011;74188;42.148;24.762;2024-03-23T12:39:18;7.20;;;4.00;;
80295;SDS011;74188;42.148;24.762;2024-03-23T12:41:45;9.07;;;3.30;;
80295;SDS011;74188;42.148;24.762;2024-03-23T12:44:11;6.20;;;3.30;;
80295;SDS011;74188;42.148;24.762;2024-03-23T12:46:40;6.45;;;3.35;;
80295;SDS011;74188;42.148;24.762;2024-03-23T12:49:09;7.90;;;3.38;;
80295;SDS011;74188;42.148;24.762;2024-03-23T12:51:35;7.95;;;3.22;;
80295;SDS011;74188;42.148;24.762;2024-03-23T12:54:01;5.82;;;3.13;;
80295;SDS011;74188;42.148;24.762;2024-03-23T12:56:26;6.68;;;2.90;;
80295;SDS011;74188;42.148;24.762;2024-03-23T12:58:55;9.57;;;3.38;;
80295;SDS011;74188;42.148;24.762;2024-03-23T13:01:25;8.20;;;3.22;;
80295;SDS011;74188;42.148;24.762;2024-03-23T13:03:51;7.15;;;3.20;;
80295;SDS011;74188;42.148;24.762;2024-03-23T13:06:16;8.02;;;2.88;;
80295;SDS011;74188;42.148;24.762;2024-03-23T13:08:46;6.63;;;3.65;;
80295;SDS011;74188;42.148;24.762;2024-03-23T13:11:12;5.45;;;3.10;;
80295;SDS011;74188;42.148;24.762;2024-03-23T13:13:39;5.50;;;3.00;;
80295;SDS011;74188;42.148;24.762;2024-03-23T13:16:06;7.10;;;2.75;;
80295;SDS011;74188;42.148;24.762;2024-03-23T13:18:32;6.72;;;2.78;;
80295;SDS011;74188;42.148;24.762;2024-03-23T13:20:58;13.57;;;8.43;;
80295;SDS011;74188;42.148;24.762;2024-03-23T13:23:24;8.52;;;3.10;;
80295;SDS011;74188;42.148;24.762;2024-03-23T13:25:51;9.15;;;3.90;;
80295;SDS011;74188;42.148;24.762;2024-03-23T13:28:18;7.78;;;4.00;;
80295;SDS011;74188;42.148;24.762;2024-03-23T13:33:20;8.25;;;5.07;;
80295;SDS011;74188;42.148;24.762;2024-03-23T13:35:52;9.85;;;5.60;;
80295;SDS011;74188;42.148;24.762;2024-03-23T13:38:19;10.45;;;6.40;;
80295;SDS011;74188;42.148;24.762;2024-03-23T13:40:58;14.38;;;6.22;;
80295;SDS011;74188;42.148;24.762;2024-03-23T13:43:25;9.70;;;6.97;;
80295;SDS011;74188;42.148;24.762;2024-03-23T13:45:55;12.38;;;8.30;;
80295;SDS011;74188;42.148;24.762;2024-03-23T13:48:25;14.63;;;8.63;;
80295;SDS011;74188;42.148;24.762;2024-03-23T13:50:58;12.27;;;8.43;;
80295;SDS011;74188;42.148;24.762;2024-03-23T13:53:24;13.20;;;9.00;;
80295;SDS011;74188;42.148;24.762;2024-03-23T13:55:50;13.35;;;6.70;;
80295;SDS011;74188;42.148;24.762;2024-03-23T13:58:16;9.40;;;5.47;;
80295;SDS011;74188;42.148;24.762;2024-03-23T14:00:42;9.93;;;4.80;;
80295;SDS011;74188;42.148;24.762;2024-03-23T14:03:08;7.78;;;4.30;;
80295;SDS011;74188;42.148;24.762;2024-03-23T14:05:34;7.70;;;4.20;;
80295;SDS011;74188;42.148;24.762;2024-03-23T14:08:00;6.15;;;3.72;;
80295;SDS011;74188;42.148;24.762;2024-03-23T14:10:26;8.13;;;3.70;;
80295;SDS011;74188;42.148;24.762;2024-03-23T14:12:52;6.67;;;3.73;;
80295;SDS011;74188;42.148;24.762;2024-03-23T14:15:18;7.32;;;4.15;;
80295;SDS011;74188;42.148;24.762;2024-03-23T14:17:44;8.70;;;4.18;;
80295;SDS011;74188;42.148;24.762;2024-03-23T14:20:10;8.85;;;3.88;;
80295;SDS011;74188;42.148;24.762;2024-03-23T14:22:36;7.03;;;3.90;;
80295;SDS011;74188;42.148;24.762;2024-03-23T14:25:03;7.50;;;4.10;;
80295;SDS011;74188;42.148;24.762;2024-03-23T14:27:29;7.75;;;4.20;;
80295;SDS011;74188;42.148;24.762;2024-03-23T14:29:55;9.48;;;3.85;;
80295;SDS011;74188;42.148;24.762;2024-03-23T14:32:21;6.78;;;4.10;;
80295;SDS011;74188;42.148;24.762;2024-03-23T14:34:47;7.90;;;3.90;;
80295;SDS011;74188;42.148;24.762;2024-03-23T14:37:13;7.90;;;4.10;;
80295;SDS011;74188;42.148;24.762;2024-03-23T14:39:41;8.52;;;4.30;;
80295;SDS011;74188;42.148;24.762;2024-03-23T14:42:07;7.50;;;3.78;;
80295;SDS011;74188;42.148;24.762;2024-03-23T14:44:35;7.97;;;3.78;;
80295;SDS011;74188;42.148;24.762;2024-03-23T14:47:01;7.40;;;4.07;;
80295;SDS011;74188;42.148;24.762;2024-03-23T14:49:27;5.72;;;3.22;;
80295;SDS011;74188;42.148;24.762;2024-03-23T14:51:52;6.38;;;3.63;;
80295;SDS011;74188;42.148;24.762;2024-03-23T14:54:18;7.43;;;4.45;;
80295;SDS011;74188;42.148;24.762;2024-03-23T14:56:44;7.22;;;3.90;;
80295;SDS011;74188;42.148;24.762;2024-03-23T14:59:09;78.45;;;33.30;;
80295;SDS011;74188;42.148;24.762;2024-03-23T15:01:35;19.88;;;8.70;;
80295;SDS011;74188;42.148;24.762;2024-03-23T15:04:00;22.52;;;12.07;;
80295;SDS011;74188;42.148;24.762;2024-03-23T15:06:26;12.90;;;6.75;;
80295;SDS011;74188;42.148;24.762;2024-03-23T15:08:52;11.40;;;4.40;;
80295;SDS011;74188;42.148;24.762;2024-03-23T15:11:19;7.43;;;4.10;;
80295;SDS011;74188;42.148;24.762;2024-03-23T15:13:45;6.93;;;3.40;;
80295;SDS011;74188;42.148;24.762;2024-03-23T15:16:16;6.15;;;3.03;;
80295;SDS011;74188;42.148;24.762;2024-03-23T15:18:45;7.05;;;3.95;;
80295;SDS011;74188;42.148;24.762;2024-03-23T15:21:11;6.30;;;3.20;;
80295;SDS011;74188;42.148;24.762;2024-03-23T15:23:37;7.28;;;4.00;;
80295;SDS011;74188;42.148;24.762;2024-03-23T15:26:03;6.55;;;3.75;;
80295;SDS011;74188;42.148;24.762;2024-03-23T15:28:31;8.77;;;4.95;;
80295;SDS011;74188;42.148;24.762;2024-03-23T15:31:06;12.50;;;6.40;;
80295;SDS011;74188;42.148;24.762;2024-03-23T15:33:34;11.40;;;5.90;;
80295;SDS011;74188;42.148;24.762;2024-03-23T15:36:00;7.45;;;4.18;;